sensor_id;sensor_type;location;lat;lon;timestamp;P1;durP1;ratioP1;P2;durP2;ratioP2
31368;SDS011;18004;48.416;10.066;2022-07-29T00:01:33;5.78;;;3.22;;
31368;SDS011;18004;48.416;10.066;2022-07-29T00:03:59;6.63;;;3.55;;
31368;SDS011;18004;48.416;10.066;2022-07-29T00:06:25;7.40;;;4.05;;
31368;SDS011;18004;48.416;10.066;2022-07-29T00:08:51;5.28;;;3.35;;
31368;SDS011;18004;48.416;10.066;2022-07-29T00:11:17;5.07;;;3.42;;
31368;SDS011;18004;48.416;10.066;2022-07-29T00:13:43;3.60;;;3.03;;
31368;SDS011;18004;48.416;10.066;2022-07-29T00:16:08;6.40;;;3.60;;
31368;SDS011;18004;48.416;10.066;2022-07-29T00:18:34;4.15;;;2.83;;
31368;SDS011;18004;48.416;10.066;2022-07-29T00:21:00;3.83;;;3.25;;
31368;SDS011;18004;48.416;10.066;2022-07-29T00:23:26;4.60;;;3.47;;
31368;SDS011;18004;48.416;10.066;2022-07-29T00:25:52;6.30;;;2.97;;
31368;SDS011;18004;48.416;10.066;2022-07-29T00:28:18;4.60;;;3.20;;
31368;SDS011;18004;48.416;10.066;2022-07-29T00:30:44;4.80;;;3.50;;
31368;SDS011;18004;48.416;10.066;2022-07-29T00:33:09;5.40;;;2.92;;
31368;SDS011;18004;48.416;10.066;2022-07-29T00:35:35;4.13;;;3.50;;
31368;SDS011;18004;48.416;10.066;2022-07-29T00:38:12;4.38;;;2.92;;
31368;SDS011;18004;48.416;10.066;2022-07-29T00:40:39;4.10;;;3.25;;
31368;SDS011;18004;48.416;10.066;2022-07-29T00:43:05;5.63;;;3.85;;
31368;SDS011;18004;48.416;10.066;2022-07-29T00:45:34;6.05;;;3.75;;
31368;SDS011;18004;48.416;10.066;2022-07-29T00:48:00;4.63;;;3.40;;
31368;SDS011;18004;48.416;10.066;2022-07-29T00:50:26;6.43;;;4.18;;
31368;SDS011;18004;48.416;10.066;2022-07-29T00:52:52;5.90;;;3.50;;
31368;SDS011;18004;48.416;10.066;2022-07-29T00:55:18;9.02;;;4.47;;
31368;SDS011;18004;48.416;10.066;2022-07-29T00:57:45;4.00;;;3.63;;
31368;SDS011;18004;48.416;10.066;2022-07-29T01:00:13;4.70;;;3.42;;
31368;SDS011;18004;48.416;10.066;2022-07-29T01:02:44;4.03;;;3.70;;
31368;SDS011;18004;48.416;10.066;2022-07-29T01:05:13;6.45;;;4.50;;
31368;SDS011;18004;48.416;10.066;2022-07-29T01:07:41;7.03;;;4.50;;
31368;SDS011;18004;48.416;10.066;2022-07-29T01:10:08;9.23;;;5.05;;
31368;SDS011;18004;48.416;10.066;2022-07-29T01:12:37;4.43;;;3.45;;
31368;SDS011;18004;48.416;10.066;2022-07-29T01:15:04;10.95;;;4.47;;
31368;SDS011;18004;48.416;10.066;2022-07-29T01:25:30;6.35;;;4.45;;
31368;SDS011;18004;48.416;10.066;2022-07-29T01:28:06;5.80;;;4.55;;
31368;SDS011;18004;48.416;10.066;2022-07-29T01:30:46;5.35;;;4.40;;
31368;SDS011;18004;48.416;10.066;2022-07-29T01:33:17;7.15;;;4.57;;
31368;SDS011;18004;48.416;10.066;2022-07-29T01:36:10;6.68;;;4.93;;
31368;SDS011;18004;48.416;10.066;2022-07-29T01:38:41;11.48;;;5.28;;
31368;SDS011;18004;48.416;10.066;2022-07-29T01:41:09;6.93;;;5.57;;
31368;SDS011;18004;48.416;10.066;2022-07-29T01:43:43;9.07;;;4.65;;
31368;SDS011;18004;48.416;10.066;2022-07-29T01:46:17;7.15;;;4.55;;
31368;SDS011;18004;48.416;10.066;2022-07-29T01:48:51;7.53;;;5.00;;
31368;SDS011;18004;48.416;10.066;2022-07-29T01:51:33;5.57;;;4.57;;
31368;SDS011;18004;48.416;10.066;2022-07-29T01:54:20;4.82;;;4.43;;
31368;SDS011;18004;48.416;10.066;2022-07-29T01:56:55;7.00;;;4.88;;
31368;SDS011;18004;48.416;10.066;2022-07-29T01:59:23;6.30;;;5.18;;
31368;SDS011;18004;48.416;10.066;2022-07-29T02:01:50;9.85;;;5.75;;
31368;SDS011;18004;48.416;10.066;2022-07-29T02:04:21;9.88;;;5.38;;
31368;SDS011;18004;48.416;10.066;2022-07-29T02:06:49;6.78;;;4.88;;
31368;SDS011;18004;48.416;10.066;2022-07-29T02:09:17;8.68;;;5.55;;
31368;SDS011;18004;48.416;10.066;2022-07-29T02:11:47;7.82;;;5.70;;
31368;SDS011;18004;48.416;10.066;2022-07-29T02:14:20;9.95;;;5.88;;
31368;SDS011;18004;48.416;10.066;2022-07-29T02:16:48;9.63;;;5.87;;
31368;SDS011;18004;48.416;10.066;2022-07-29T02:19:18;9.73;;;5.70;;
31368;SDS011;18004;48.416;10.066;2022-07-29T02:21:47;12.88;;;6.40;;
31368;SDS011;18004;48.416;10.066;2022-07-29T02:24:15;6.65;;;5.95;;
31368;SDS011;18004;48.416;10.066;2022-07-29T02:26:46;10.55;;;6.68;;
31368;SDS011;18004;48.416;10.066;2022-07-29T02:29:14;7.55;;;6.53;;
31368;SDS011;18004;48.416;10.066;2022-07-29T02:31:44;8.88;;;5.75;;
31368;SDS011;18004;48.416;10.066;2022-07-29T02:34:12;7.55;;;6.03;;
31368;SDS011;18004;48.416;10.066;2022-07-29T02:36:40;9.52;;;6.10;;
31368;SDS011;18004;48.416;10.066;2022-07-29T02:39:08;7.07;;;6.15;;
31368;SDS011;18004;48.416;10.066;2022-07-29T02:41:46;13.77;;;6.32;;
31368;SDS011;18004;48.416;10.066;2022-07-29T02:44:14;8.32;;;6.00;;
31368;SDS011;18004;48.416;10.066;2022-07-29T02:46:46;7.85;;;5.72;;
31368;SDS011;18004;48.416;10.066;2022-07-29T02:51:58;8.07;;;6.28;;
31368;SDS011;18004;48.416;10.066;2022-07-29T02:54:31;9.38;;;6.40;;
31368;SDS011;18004;48.416;10.066;2022-07-29T02:57:06;6.85;;;6.07;;
31368;SDS011;18004;48.416;10.066;2022-07-29T02:59:42;6.05;;;5.45;;
31368;SDS011;18004;48.416;10.066;2022-07-29T03:02:10;7.68;;;5.97;;
31368;SDS011;18004;48.416;10.066;2022-07-29T03:04:38;13.60;;;6.95;;
31368;SDS011;18004;48.416;10.066;2022-07-29T03:07:06;9.82;;;6.88;;
31368;SDS011;18004;48.416;10.066;2022-07-29T03:09:33;9.88;;;7.00;;
31368;SDS011;18004;48.416;10.066;2022-07-29T03:12:00;8.77;;;6.63;;
31368;SDS011;18004;48.416;10.066;2022-07-29T03:14:26;11.18;;;6.88;;
31368;SDS011;18004;48.416;10.066;2022-07-29T03:16:53;11.07;;;7.03;;
31368;SDS011;18004;48.416;10.066;2022-07-29T03:19:19;13.75;;;6.80;;
31368;SDS011;18004;48.416;10.066;2022-07-29T03:21:45;12.70;;;6.82;;
31368;SDS011;18004;48.416;10.066;2022-07-29T03:24:23;11.88;;;7.10;;
31368;SDS011;18004;48.416;10.066;2022-07-29T03:27:07;9.10;;;6.30;;
31368;SDS011;18004;48.416;10.066;2022-07-29T03:29:33;8.40;;;6.82;;
31368;SDS011;18004;48.416;10.066;2022-07-29T03:31:59;9.63;;;7.47;;
31368;SDS011;18004;48.416;10.066;2022-07-29T03:34:29;11.45;;;7.43;;
31368;SDS011;18004;48.416;10.066;2022-07-29T03:36:55;12.32;;;7.70;;
31368;SDS011;18004;48.416;10.066;2022-07-29T03:39:21;13.00;;;7.85;;
31368;SDS011;18004;48.416;10.066;2022-07-29T03:41:55;10.07;;;8.05;;
31368;SDS011;18004;48.416;10.066;2022-07-29T03:44:21;11.38;;;8.57;;
31368;SDS011;18004;48.416;10.066;2022-07-29T03:46:49;10.48;;;7.45;;
31368;SDS011;18004;48.416;10.066;2022-07-29T03:49:16;12.60;;;8.38;;
31368;SDS011;18004;48.416;10.066;2022-07-29T03:51:44;16.08;;;8.68;;
31368;SDS011;18004;48.416;10.066;2022-07-29T03:54:11;9.07;;;8.23;;
31368;SDS011;18004;48.416;10.066;2022-07-29T03:56:38;12.63;;;8.80;;
31368;SDS011;18004;48.416;10.066;2022-07-29T03:59:07;12.98;;;8.98;;
31368;SDS011;18004;48.416;10.066;2022-07-29T04:01:35;10.93;;;8.40;;
31368;SDS011;18004;48.416;10.066;2022-07-29T04:04:02;9.23;;;7.93;;
31368;SDS011;18004;48.416;10.066;2022-07-29T04:06:36;10.32;;;7.75;;
31368;SDS011;18004;48.416;10.066;2022-07-29T04:09:03;14.20;;;8.07;;
31368;SDS011;18004;48.416;10.066;2022-07-29T04:11:29;10.77;;;8.65;;
31368;SDS011;18004;48.416;10.066;2022-07-29T04:13:55;12.50;;;9.57;;
31368;SDS011;18004;48.416;10.066;2022-07-29T04:16:21;16.75;;;11.25;;
31368;SDS011;18004;48.416;10.066;2022-07-29T04:18:46;21.55;;;12.55;;
31368;SDS011;18004;48.416;10.066;2022-07-29T04:21:12;29.35;;;18.73;;
31368;SDS011;18004;48.416;10.066;2022-07-29T04:23:38;25.60;;;17.77;;
31368;SDS011;18004;48.416;10.066;2022-07-29T04:26:04;23.55;;;15.70;;
31368;SDS011;18004;48.416;10.066;2022-07-29T04:28:30;18.42;;;10.55;;
31368;SDS011;18004;48.416;10.066;2022-07-29T04:30:56;9.98;;;7.47;;
31368;SDS011;18004;48.416;10.066;2022-07-29T04:33:22;11.77;;;8.23;;
31368;SDS011;18004;48.416;10.066;2022-07-29T04:35:47;9.30;;;7.53;;
31368;SDS011;18004;48.416;10.066;2022-07-29T04:38:13;10.57;;;7.70;;
31368;SDS011;18004;48.416;10.066;2022-07-29T04:40:39;11.93;;;7.20;;
31368;SDS011;18004;48.416;10.066;2022-07-29T04:43:05;12.35;;;7.72;;
31368;SDS011;18004;48.416;10.066;2022-07-29T04:45:31;7.60;;;6.63;;
31368;SDS011;18004;48.416;10.066;2022-07-29T04:47:56;8.70;;;7.05;;
31368;SDS011;18004;48.416;10.066;2022-07-29T04:50:22;11.18;;;7.00;;
31368;SDS011;18004;48.416;10.066;2022-07-29T04:52:49;9.40;;;6.43;;
31368;SDS011;18004;48.416;10.066;2022-07-29T04:55:14;8.13;;;7.07;;
31368;SDS011;18004;48.416;10.066;2022-07-29T04:57:40;9.90;;;7.03;;
31368;SDS011;18004;48.416;10.066;2022-07-29T05:00:06;12.50;;;7.15;;
31368;SDS011;18004;48.416;10.066;2022-07-29T05:02:33;10.52;;;7.38;;
31368;SDS011;18004;48.416;10.066;2022-07-29T05:04:58;10.73;;;6.63;;
31368;SDS011;18004;48.416;10.066;2022-07-29T05:07:24;10.57;;;6.75;;
31368;SDS011;18004;48.416;10.066;2022-07-29T05:09:50;9.60;;;6.78;;
31368;SDS011;18004;48.416;10.066;2022-07-29T05:12:16;9.25;;;6.75;;
31368;SDS011;18004;48.416;10.066;2022-07-29T05:14:41;6.85;;;5.78;;
31368;SDS011;18004;48.416;10.066;2022-07-29T05:17:07;8.02;;;5.68;;
31368;SDS011;18004;48.416;10.066;2022-07-29T05:19:33;9.68;;;5.95;;
31368;SDS011;18004;48.416;10.066;2022-07-29T05:21:59;6.47;;;5.00;;
31368;SDS011;18004;48.416;10.066;2022-07-29T05:24:25;6.45;;;4.95;;
31368;SDS011;18004;48.416;10.066;2022-07-29T05:26:51;5.70;;;4.85;;
31368;SDS011;18004;48.416;10.066;2022-07-29T05:29:16;6.45;;;4.82;;
31368;SDS011;18004;48.416;10.066;2022-07-29T05:31:42;6.85;;;5.15;;
31368;SDS011;18004;48.416;10.066;2022-07-29T05:34:08;6.45;;;4.82;;
31368;SDS011;18004;48.416;10.066;2022-07-29T05:36:33;7.10;;;4.55;;
31368;SDS011;18004;48.416;10.066;2022-07-29T05:38:59;5.10;;;4.30;;
31368;SDS011;18004;48.416;10.066;2022-07-29T05:41:25;7.10;;;4.13;;
31368;SDS011;18004;48.416;10.066;2022-07-29T05:43:51;4.65;;;3.83;;
31368;SDS011;18004;48.416;10.066;2022-07-29T05:46:17;4.88;;;3.15;;
31368;SDS011;18004;48.416;10.066;2022-07-29T05:48:43;10.60;;;3.70;;
31368;SDS011;18004;48.416;10.066;2022-07-29T05:51:09;3.97;;;3.05;;
31368;SDS011;18004;48.416;10.066;2022-07-29T05:53:35;3.15;;;2.80;;
31368;SDS011;18004;48.416;10.066;2022-07-29T05:56:03;5.18;;;3.40;;
31368;SDS011;18004;48.416;10.066;2022-07-29T05:58:30;4.30;;;2.80;;
31368;SDS011;18004;48.416;10.066;2022-07-29T06:00:56;6.35;;;3.05;;
31368;SDS011;18004;48.416;10.066;2022-07-29T06:03:25;3.80;;;2.72;;
31368;SDS011;18004;48.416;10.066;2022-07-29T06:05:51;3.78;;;2.67;;
31368;SDS011;18004;48.416;10.066;2022-07-29T06:08:17;2.67;;;1.98;;
31368;SDS011;18004;48.416;10.066;2022-07-29T06:10:43;8.18;;;2.50;;
31368;SDS011;18004;48.416;10.066;2022-07-29T06:13:10;2.78;;;2.38;;
31368;SDS011;18004;48.416;10.066;2022-07-29T06:15:36;4.20;;;2.28;;
31368;SDS011;18004;48.416;10.066;2022-07-29T06:18:02;3.70;;;2.15;;
31368;SDS011;18004;48.416;10.066;2022-07-29T06:20:28;2.28;;;1.95;;
31368;SDS011;18004;48.416;10.066;2022-07-29T06:22:55;8.75;;;2.47;;
31368;SDS011;18004;48.416;10.066;2022-07-29T06:25:21;2.92;;;2.22;;
31368;SDS011;18004;48.416;10.066;2022-07-29T06:27:47;2.05;;;1.85;;
31368;SDS011;18004;48.416;10.066;2022-07-29T06:30:13;2.85;;;2.28;;
31368;SDS011;18004;48.416;10.066;2022-07-29T06:32:38;3.25;;;2.40;;
31368;SDS011;18004;48.416;10.066;2022-07-29T06:35:04;3.17;;;2.50;;
31368;SDS011;18004;48.416;10.066;2022-07-29T06:37:31;3.33;;;1.67;;
31368;SDS011;18004;48.416;10.066;2022-07-29T06:39:56;2.97;;;2.13;;
31368;SDS011;18004;48.416;10.066;2022-07-29T06:42:44;2.97;;;2.42;;
31368;SDS011;18004;48.416;10.066;2022-07-29T06:45:11;2.80;;;1.88;;
31368;SDS011;18004;48.416;10.066;2022-07-29T06:47:37;3.35;;;2.35;;
31368;SDS011;18004;48.416;10.066;2022-07-29T06:50:03;4.57;;;2.15;;
31368;SDS011;18004;48.416;10.066;2022-07-29T06:52:29;4.93;;;2.60;;
31368;SDS011;18004;48.416;10.066;2022-07-29T06:54:55;3.10;;;2.63;;
31368;SDS011;18004;48.416;10.066;2022-07-29T06:57:21;3.50;;;2.42;;
31368;SDS011;18004;48.416;10.066;2022-07-29T06:59:47;2.85;;;2.55;;
31368;SDS011;18004;48.416;10.066;2022-07-29T07:02:13;5.47;;;2.22;;
31368;SDS011;18004;48.416;10.066;2022-07-29T07:04:39;3.67;;;2.60;;
31368;SDS011;18004;48.416;10.066;2022-07-29T07:07:05;4.43;;;2.90;;
31368;SDS011;18004;48.416;10.066;2022-07-29T07:09:31;3.08;;;2.30;;
31368;SDS011;18004;48.416;10.066;2022-07-29T07:11:57;3.58;;;2.50;;
31368;SDS011;18004;48.416;10.066;2022-07-29T07:14:23;2.13;;;1.92;;
31368;SDS011;18004;48.416;10.066;2022-07-29T07:16:51;3.83;;;2.15;;
31368;SDS011;18004;48.416;10.066;2022-07-29T07:19:17;4.75;;;2.17;;
31368;SDS011;18004;48.416;10.066;2022-07-29T07:21:44;2.65;;;2.17;;
31368;SDS011;18004;48.416;10.066;2022-07-29T07:24:10;2.63;;;1.92;;
31368;SDS011;18004;48.416;10.066;2022-07-29T07:26:35;3.42;;;2.08;;
31368;SDS011;18004;48.416;10.066;2022-07-29T07:29:01;3.92;;;2.13;;
31368;SDS011;18004;48.416;10.066;2022-07-29T07:31:27;2.42;;;1.95;;
31368;SDS011;18004;48.416;10.066;2022-07-29T07:33:53;2.35;;;1.90;;
31368;SDS011;18004;48.416;10.066;2022-07-29T07:36:19;2.97;;;1.88;;
31368;SDS011;18004;48.416;10.066;2022-07-29T07:38:45;4.30;;;2.03;;
31368;SDS011;18004;48.416;10.066;2022-07-29T07:41:10;4.57;;;2.08;;
31368;SDS011;18004;48.416;10.066;2022-07-29T07:43:36;3.83;;;2.53;;
31368;SDS011;18004;48.416;10.066;2022-07-29T07:46:02;2.58;;;2.20;;
31368;SDS011;18004;48.416;10.066;2022-07-29T07:48:28;2.20;;;1.73;;
31368;SDS011;18004;48.416;10.066;2022-07-29T07:50:54;2.67;;;2.25;;
31368;SDS011;18004;48.416;10.066;2022-07-29T07:53:19;3.55;;;2.22;;
31368;SDS011;18004;48.416;10.066;2022-07-29T07:55:45;1.88;;;1.60;;
31368;SDS011;18004;48.416;10.066;2022-07-29T07:58:11;2.60;;;1.65;;
31368;SDS011;18004;48.416;10.066;2022-07-29T08:00:37;2.53;;;1.60;;
31368;SDS011;18004;48.416;10.066;2022-07-29T08:03:03;1.85;;;1.30;;
31368;SDS011;18004;48.416;10.066;2022-07-29T08:05:29;1.98;;;1.38;;
31368;SDS011;18004;48.416;10.066;2022-07-29T08:07:57;3.47;;;1.80;;
31368;SDS011;18004;48.416;10.066;2022-07-29T08:10:23;1.85;;;1.38;;
31368;SDS011;18004;48.416;10.066;2022-07-29T08:13:08;2.22;;;1.20;;
31368;SDS011;18004;48.416;10.066;2022-07-29T08:15:35;2.13;;;1.40;;
31368;SDS011;18004;48.416;10.066;2022-07-29T08:18:01;2.30;;;1.75;;
31368;SDS011;18004;48.416;10.066;2022-07-29T08:20:27;5.68;;;1.95;;
31368;SDS011;18004;48.416;10.066;2022-07-29T08:22:54;2.13;;;1.40;;
31368;SDS011;18004;48.416;10.066;2022-07-29T08:25:20;2.03;;;1.83;;
31368;SDS011;18004;48.416;10.066;2022-07-29T08:27:46;3.72;;;1.30;;
31368;SDS011;18004;48.416;10.066;2022-07-29T08:30:12;3.75;;;1.63;;
31368;SDS011;18004;48.416;10.066;2022-07-29T08:32:38;2.65;;;1.50;;
31368;SDS011;18004;48.416;10.066;2022-07-29T08:35:04;3.97;;;2.20;;
31368;SDS011;18004;48.416;10.066;2022-07-29T08:37:30;6.35;;;1.80;;
31368;SDS011;18004;48.416;10.066;2022-07-29T08:39:56;2.17;;;1.58;;
31368;SDS011;18004;48.416;10.066;2022-07-29T08:42:22;9.55;;;1.60;;
31368;SDS011;18004;48.416;10.066;2022-07-29T08:44:48;1.17;;;1.08;;
31368;SDS011;18004;48.416;10.066;2022-07-29T08:47:15;1.40;;;1.02;;
31368;SDS011;18004;48.416;10.066;2022-07-29T08:49:42;7.20;;;3.72;;
31368;SDS011;18004;48.416;10.066;2022-07-29T08:52:11;3.17;;;2.08;;
31368;SDS011;18004;48.416;10.066;2022-07-29T08:54:38;1.95;;;1.33;;
31368;SDS011;18004;48.416;10.066;2022-07-29T08:57:07;2.45;;;1.58;;
31368;SDS011;18004;48.416;10.066;2022-07-29T08:59:34;1.85;;;1.38;;
31368;SDS011;18004;48.416;10.066;2022-07-29T09:02:02;2.45;;;1.45;;
31368;SDS011;18004;48.416;10.066;2022-07-29T09:04:53;1.27;;;1.00;;
31368;SDS011;18004;48.416;10.066;2022-07-29T09:07:19;1.77;;;1.08;;
31368;SDS011;18004;48.416;10.066;2022-07-29T09:09:45;1.67;;;1.10;;
31368;SDS011;18004;48.416;10.066;2022-07-29T09:12:48;1.58;;;1.13;;
31368;SDS011;18004;48.416;10.066;2022-07-29T09:15:15;1.17;;;1.08;;
31368;SDS011;18004;48.416;10.066;2022-07-29T09:17:47;1.40;;;1.23;;
31368;SDS011;18004;48.416;10.066;2022-07-29T09:20:21;2.70;;;1.40;;
31368;SDS011;18004;48.416;10.066;2022-07-29T09:22:53;0.90;;;0.90;;
31368;SDS011;18004;48.416;10.066;2022-07-29T09:25:40;2.25;;;1.17;;
31368;SDS011;18004;48.416;10.066;2022-07-29T09:33:54;2.42;;;1.42;;
31368;SDS011;18004;48.416;10.066;2022-07-29T09:36:25;1.70;;;1.13;;
31368;SDS011;18004;48.416;10.066;2022-07-29T09:38:58;0.88;;;0.88;;
31368;SDS011;18004;48.416;10.066;2022-07-29T09:41:28;1.35;;;1.20;;
31368;SDS011;18004;48.416;10.066;2022-07-29T09:44:08;2.15;;;0.93;;
31368;SDS011;18004;48.416;10.066;2022-07-29T09:46:34;1.45;;;0.90;;
31368;SDS011;18004;48.416;10.066;2022-07-29T09:49:19;5.22;;;1.10;;
31368;SDS011;18004;48.416;10.066;2022-07-29T09:52:17;4.10;;;1.25;;
31368;SDS011;18004;48.416;10.066;2022-07-29T09:54:43;2.42;;;1.63;;
31368;SDS011;18004;48.416;10.066;2022-07-29T09:57:21;1.95;;;1.20;;
31368;SDS011;18004;48.416;10.066;2022-07-29T10:00:47;2.33;;;1.38;;
31368;SDS011;18004;48.416;10.066;2022-07-29T10:04:00;1.70;;;1.20;;
31368;SDS011;18004;48.416;10.066;2022-07-29T10:07:08;1.27;;;0.90;;
31368;SDS011;18004;48.416;10.066;2022-07-29T10:09:35;1.25;;;1.15;;
31368;SDS011;18004;48.416;10.066;2022-07-29T10:12:23;3.40;;;1.48;;
31368;SDS011;18004;48.416;10.066;2022-07-29T10:15:16;1.63;;;1.15;;
31368;SDS011;18004;48.416;10.066;2022-07-29T10:17:52;3.88;;;1.23;;
31368;SDS011;18004;48.416;10.066;2022-07-29T10:20:20;3.60;;;1.40;;
31368;SDS011;18004;48.416;10.066;2022-07-29T10:26:05;1.00;;;0.90;;
31368;SDS011;18004;48.416;10.066;2022-07-29T10:32:54;1.83;;;1.10;;
31368;SDS011;18004;48.416;10.066;2022-07-29T10:42:22;1.85;;;1.20;;
31368;SDS011;18004;48.416;10.066;2022-07-29T10:44:52;2.30;;;1.20;;
31368;SDS011;18004;48.416;10.066;2022-07-29T10:47:26;1.08;;;1.00;;
31368;SDS011;18004;48.416;10.066;2022-07-29T10:49:59;1.88;;;1.13;;
31368;SDS011;18004;48.416;10.066;2022-07-29T10:52:54;2.88;;;1.17;;
31368;SDS011;18004;48.416;10.066;2022-07-29T10:58:22;4.50;;;1.33;;
31368;SDS011;18004;48.416;10.066;2022-07-29T11:00:49;1.00;;;0.80;;
31368;SDS011;18004;48.416;10.066;2022-07-29T11:10:39;1.27;;;1.15;;
31368;SDS011;18004;48.416;10.066;2022-07-29T11:15:32;0.82;;;0.70;;
31368;SDS011;18004;48.416;10.066;2022-07-29T11:18:19;0.73;;;0.70;;
31368;SDS011;18004;48.416;10.066;2022-07-29T11:21:34;3.53;;;1.10;;
31368;SDS011;18004;48.416;10.066;2022-07-29T11:24:26;0.95;;;0.80;;
31368;SDS011;18004;48.416;10.066;2022-07-29T11:29:56;3.22;;;0.82;;
31368;SDS011;18004;48.416;10.066;2022-07-29T11:32:25;0.95;;;0.68;;
31368;SDS011;18004;48.416;10.066;2022-07-29T11:35:25;0.70;;;0.70;;
31368;SDS011;18004;48.416;10.066;2022-07-29T11:45:52;2.05;;;1.08;;
31368;SDS011;18004;48.416;10.066;2022-07-29T11:51:30;2.80;;;0.93;;
31368;SDS011;18004;48.416;10.066;2022-07-29T11:54:21;1.60;;;1.07;;
31368;SDS011;18004;48.416;10.066;2022-07-29T11:56:58;0.70;;;0.60;;
31368;SDS011;18004;48.416;10.066;2022-07-29T11:59:27;2.05;;;1.20;;
31368;SDS011;18004;48.416;10.066;2022-07-29T12:02:03;2.72;;;1.10;;
31368;SDS011;18004;48.416;10.066;2022-07-29T12:04:33;0.70;;;0.63;;
31368;SDS011;18004;48.416;10.066;2022-07-29T12:07:13;1.75;;;0.95;;
31368;SDS011;18004;48.416;10.066;2022-07-29T12:09:39;1.75;;;1.02;;
31368;SDS011;18004;48.416;10.066;2022-07-29T12:12:05;1.77;;;0.80;;
31368;SDS011;18004;48.416;10.066;2022-07-29T12:14:32;1.20;;;0.93;;
31368;SDS011;18004;48.416;10.066;2022-07-29T12:17:01;3.22;;;0.70;;
31368;SDS011;18004;48.416;10.066;2022-07-29T12:19:28;3.65;;;1.00;;
31368;SDS011;18004;48.416;10.066;2022-07-29T12:21:54;1.52;;;0.90;;
31368;SDS011;18004;48.416;10.066;2022-07-29T12:24:27;1.52;;;0.90;;
31368;SDS011;18004;48.416;10.066;2022-07-29T12:27:38;2.90;;;0.75;;
31368;SDS011;18004;48.416;10.066;2022-07-29T12:30:12;1.30;;;0.80;;
31368;SDS011;18004;48.416;10.066;2022-07-29T12:32:42;1.38;;;0.90;;
31368;SDS011;18004;48.416;10.066;2022-07-29T12:35:11;1.02;;;0.80;;
31368;SDS011;18004;48.416;10.066;2022-07-29T12:38:20;1.60;;;0.88;;
31368;SDS011;18004;48.416;10.066;2022-07-29T12:42:10;1.13;;;0.90;;
31368;SDS011;18004;48.416;10.066;2022-07-29T13:14:48;1.10;;;0.93;;
31368;SDS011;18004;48.416;10.066;2022-07-29T13:17:18;1.00;;;0.90;;
31368;SDS011;18004;48.416;10.066;2022-07-29T13:20:05;1.75;;;1.23;;
31368;SDS011;18004;48.416;10.066;2022-07-29T13:22:37;1.88;;;1.13;;
31368;SDS011;18004;48.416;10.066;2022-07-29T13:25:24;2.38;;;1.30;;
31368;SDS011;18004;48.416;10.066;2022-07-29T13:27:51;1.15;;;0.90;;
31368;SDS011;18004;48.416;10.066;2022-07-29T13:30:19;1.88;;;0.90;;
31368;SDS011;18004;48.416;10.066;2022-07-29T13:32:46;4.00;;;0.70;;
31368;SDS011;18004;48.416;10.066;2022-07-29T13:35:20;1.95;;;1.10;;
31368;SDS011;18004;48.416;10.066;2022-07-29T13:38:17;1.08;;;0.98;;
31368;SDS011;18004;48.416;10.066;2022-07-29T13:40:56;1.85;;;1.00;;
31368;SDS011;18004;48.416;10.066;2022-07-29T13:43:21;1.38;;;1.08;;
31368;SDS011;18004;48.416;10.066;2022-07-29T13:45:47;1.02;;;0.70;;
31368;SDS011;18004;48.416;10.066;2022-07-29T13:48:13;0.68;;;0.65;;
31368;SDS011;18004;48.416;10.066;2022-07-29T13:50:39;6.10;;;2.47;;
31368;SDS011;18004;48.416;10.066;2022-07-29T13:53:04;4.72;;;1.90;;
31368;SDS011;18004;48.416;10.066;2022-07-29T13:55:30;0.80;;;0.80;;
31368;SDS011;18004;48.416;10.066;2022-07-29T13:57:56;2.10;;;1.20;;
31368;SDS011;18004;48.416;10.066;2022-07-29T14:00:22;5.60;;;1.27;;
31368;SDS011;18004;48.416;10.066;2022-07-29T14:02:48;6.90;;;0.68;;
31368;SDS011;18004;48.416;10.066;2022-07-29T14:05:14;1.30;;;0.70;;
31368;SDS011;18004;48.416;10.066;2022-07-29T14:07:40;1.15;;;0.80;;
31368;SDS011;18004;48.416;10.066;2022-07-29T14:10:06;1.65;;;0.93;;
31368;SDS011;18004;48.416;10.066;2022-07-29T14:12:33;1.75;;;1.00;;
31368;SDS011;18004;48.416;10.066;2022-07-29T14:14:58;2.45;;;1.52;;
31368;SDS011;18004;48.416;10.066;2022-07-29T14:17:24;3.17;;;1.35;;
31368;SDS011;18004;48.416;10.066;2022-07-29T14:19:50;2.30;;;1.20;;
31368;SDS011;18004;48.416;10.066;2022-07-29T14:22:15;2.72;;;1.48;;
31368;SDS011;18004;48.416;10.066;2022-07-29T14:24:44;1.65;;;1.00;;
31368;SDS011;18004;48.416;10.066;2022-07-29T14:27:10;2.17;;;1.40;;
31368;SDS011;18004;48.416;10.066;2022-07-29T14:29:36;2.70;;;1.10;;
31368;SDS011;18004;48.416;10.066;2022-07-29T14:32:02;1.90;;;0.93;;
31368;SDS011;18004;48.416;10.066;2022-07-29T14:34:28;1.38;;;0.70;;
31368;SDS011;18004;48.416;10.066;2022-07-29T14:36:54;2.42;;;1.10;;
31368;SDS011;18004;48.416;10.066;2022-07-29T14:39:23;5.20;;;1.33;;
31368;SDS011;18004;48.416;10.066;2022-07-29T14:41:49;3.92;;;0.98;;
31368;SDS011;18004;48.416;10.066;2022-07-29T14:44:16;1.30;;;0.93;;
31368;SDS011;18004;48.416;10.066;2022-07-29T14:46:43;2.35;;;0.95;;
31368;SDS011;18004;48.416;10.066;2022-07-29T14:49:09;0.80;;;0.80;;
31368;SDS011;18004;48.416;10.066;2022-07-29T14:51:35;2.08;;;0.90;;
31368;SDS011;18004;48.416;10.066;2022-07-29T14:54:00;0.82;;;0.82;;
31368;SDS011;18004;48.416;10.066;2022-07-29T14:56:26;2.25;;;1.33;;
31368;SDS011;18004;48.416;10.066;2022-07-29T14:58:55;5.05;;;1.35;;
31368;SDS011;18004;48.416;10.066;2022-07-29T15:01:21;1.48;;;1.15;;
31368;SDS011;18004;48.416;10.066;2022-07-29T15:03:47;1.48;;;1.30;;
31368;SDS011;18004;48.416;10.066;2022-07-29T15:06:13;2.28;;;1.27;;
31368;SDS011;18004;48.416;10.066;2022-07-29T15:08:38;3.45;;;1.55;;
31368;SDS011;18004;48.416;10.066;2022-07-29T15:11:04;4.90;;;2.03;;
31368;SDS011;18004;48.416;10.066;2022-07-29T15:13:30;1.85;;;1.55;;
31368;SDS011;18004;48.416;10.066;2022-07-29T15:15:56;3.67;;;1.90;;
31368;SDS011;18004;48.416;10.066;2022-07-29T15:18:21;5.18;;;2.63;;
31368;SDS011;18004;48.416;10.066;2022-07-29T15:20:47;3.05;;;2.47;;
31368;SDS011;18004;48.416;10.066;2022-07-29T15:23:13;3.17;;;2.38;;
31368;SDS011;18004;48.416;10.066;2022-07-29T15:25:39;5.47;;;3.78;;
31368;SDS011;18004;48.416;10.066;2022-07-29T15:28:05;16.33;;;9.93;;
31368;SDS011;18004;48.416;10.066;2022-07-29T15:30:34;28.77;;;17.83;;
31368;SDS011;18004;48.416;10.066;2022-07-29T15:33:05;33.13;;;20.38;;
31368;SDS011;18004;48.416;10.066;2022-07-29T15:35:33;21.80;;;15.65;;
31368;SDS011;18004;48.416;10.066;2022-07-29T15:37:58;23.15;;;16.00;;
31368;SDS011;18004;48.416;10.066;2022-07-29T15:40:24;24.05;;;16.70;;
31368;SDS011;18004;48.416;10.066;2022-07-29T15:42:50;16.98;;;10.65;;
31368;SDS011;18004;48.416;10.066;2022-07-29T15:45:16;13.52;;;7.93;;
31368;SDS011;18004;48.416;10.066;2022-07-29T15:47:42;9.10;;;7.40;;
31368;SDS011;18004;48.416;10.066;2022-07-29T15:50:07;10.73;;;7.00;;
31368;SDS011;18004;48.416;10.066;2022-07-29T15:52:38;14.13;;;10.17;;
31368;SDS011;18004;48.416;10.066;2022-07-29T15:55:04;20.13;;;11.77;;
31368;SDS011;18004;48.416;10.066;2022-07-29T15:57:31;19.90;;;12.52;;
31368;SDS011;18004;48.416;10.066;2022-07-29T15:59:57;12.25;;;9.63;;
31368;SDS011;18004;48.416;10.066;2022-07-29T16:02:23;20.98;;;11.82;;
31368;SDS011;18004;48.416;10.066;2022-07-29T16:04:49;18.48;;;12.10;;
31368;SDS011;18004;48.416;10.066;2022-07-29T16:07:14;12.68;;;9.27;;
31368;SDS011;18004;48.416;10.066;2022-07-29T16:09:41;11.77;;;6.95;;
31368;SDS011;18004;48.416;10.066;2022-07-29T16:12:07;6.25;;;4.65;;
31368;SDS011;18004;48.416;10.066;2022-07-29T16:14:33;4.47;;;3.70;;